sensor_id;sensor_type;location;lat;lon;timestamp;P1;durP1;ratioP1;P2;durP2;ratioP2
27576;SDS011;15011;53.380;10.034;2023-09-19T00:02:57;2.55;;;1.55;;
27576;SDS011;15011;53.380;10.034;2023-09-19T00:07:59;3.33;;;1.67;;
27576;SDS011;15011;53.380;10.034;2023-09-19T00:13:00;5.03;;;2.23;;
27576;SDS011;15011;53.380;10.034;2023-09-19T00:18:04;3.55;;;1.88;;
27576;SDS011;15011;53.380;10.034;2023-09-19T00:23:06;3.47;;;1.67;;
27576;SDS011;15011;53.380;10.034;2023-09-19T00:28:08;3.15;;;1.92;;
27576;SDS011;15011;53.380;10.034;2023-09-19T00:38:11;3.80;;;2.28;;
27576;SDS011;15011;53.380;10.034;2023-09-19T00:43:12;3.50;;;2.42;;
27576;SDS011;15011;53.380;10.034;2023-09-19T00:53:14;3.77;;;2.10;;
27576;SDS011;15011;53.380;10.034;2023-09-19T00:58:18;3.67;;;2.30;;
27576;SDS011;15011;53.380;10.034;2023-09-19T01:03:20;4.53;;;2.83;;
27576;SDS011;15011;53.380;10.034;2023-09-19T01:08:20;4.10;;;2.27;;
27576;SDS011;15011;53.380;10.034;2023-09-19T01:18:43;6.00;;;3.33;;
27576;SDS011;15011;53.380;10.034;2023-09-19T01:34:46;5.00;;;2.92;;
27576;SDS011;15011;53.380;10.034;2023-09-19T01:39:47;6.22;;;3.20;;
27576;SDS011;15011;53.380;10.034;2023-09-19T01:45:03;4.93;;;3.20;;
27576;SDS011;15011;53.380;10.034;2023-09-19T01:50:31;7.80;;;3.78;;
27576;SDS011;15011;53.380;10.034;2023-09-19T01:55:46;6.28;;;3.58;;
27576;SDS011;15011;53.380;10.034;2023-09-19T02:00:49;4.35;;;2.75;;
27576;SDS011;15011;53.380;10.034;2023-09-19T02:05:51;4.82;;;3.00;;
27576;SDS011;15011;53.380;10.034;2023-09-19T02:10:53;3.60;;;3.00;;
27576;SDS011;15011;53.380;10.034;2023-09-19T02:20:56;5.80;;;3.10;;
27576;SDS011;15011;53.380;10.034;2023-09-19T02:25:58;4.28;;;3.15;;
27576;SDS011;15011;53.380;10.034;2023-09-19T02:31:00;6.05;;;3.50;;
27576;SDS011;15011;53.380;10.034;2023-09-19T02:41:04;5.68;;;2.70;;
27576;SDS011;15011;53.380;10.034;2023-09-19T02:46:04;5.35;;;3.17;;
27576;SDS011;15011;53.380;10.034;2023-09-19T02:51:05;7.18;;;2.78;;
27576;SDS011;15011;53.380;10.034;2023-09-19T03:01:08;5.25;;;3.30;;
27576;SDS011;15011;53.380;10.034;2023-09-19T03:06:09;6.30;;;2.95;;
27576;SDS011;15011;53.380;10.034;2023-09-19T03:16:25;4.40;;;2.45;;
27576;SDS011;15011;53.380;10.034;2023-09-19T03:31:27;3.13;;;1.63;;
27576;SDS011;15011;53.380;10.034;2023-09-19T03:36:28;5.25;;;1.98;;
27576;SDS011;15011;53.380;10.034;2023-09-19T03:41:29;2.53;;;1.63;;
27576;SDS011;15011;53.380;10.034;2023-09-19T03:46:30;2.70;;;1.20;;
27576;SDS011;15011;53.380;10.034;2023-09-19T03:51:32;1.33;;;1.23;;
27576;SDS011;15011;53.380;10.034;2023-09-19T03:56:34;0.93;;;0.90;;
27576;SDS011;15011;53.380;10.034;2023-09-19T04:01:35;1.97;;;1.03;;
27576;SDS011;15011;53.380;10.034;2023-09-19T04:06:35;2.45;;;1.00;;
27576;SDS011;15011;53.380;10.034;2023-09-19T04:11:36;2.88;;;0.93;;
27576;SDS011;15011;53.380;10.034;2023-09-19T04:16:36;2.47;;;1.20;;
27576;SDS011;15011;53.380;10.034;2023-09-19T04:21:37;2.15;;;1.10;;
27576;SDS011;15011;53.380;10.034;2023-09-19T04:26:38;2.80;;;1.10;;
27576;SDS011;15011;53.380;10.034;2023-09-19T04:31:38;3.92;;;1.17;;
27576;SDS011;15011;53.380;10.034;2023-09-19T04:36:40;6.45;;;1.17;;
27576;SDS011;15011;53.380;10.034;2023-09-19T04:41:41;3.27;;;1.10;;
27576;SDS011;15011;53.380;10.034;2023-09-19T04:46:41;3.45;;;1.10;;
27576;SDS011;15011;53.380;10.034;2023-09-19T04:51:42;3.13;;;1.40;;
27576;SDS011;15011;53.380;10.034;2023-09-19T04:56:42;3.95;;;1.17;;
27576;SDS011;15011;53.380;10.034;2023-09-19T05:01:43;3.47;;;1.38;;
27576;SDS011;15011;53.380;10.034;2023-09-19T05:06:44;5.57;;;1.45;;
27576;SDS011;15011;53.380;10.034;2023-09-19T05:11:44;3.15;;;1.20;;
27576;SDS011;15011;53.380;10.034;2023-09-19T05:16:44;5.13;;;1.60;;
27576;SDS011;15011;53.380;10.034;2023-09-19T05:21:45;3.07;;;1.53;;
27576;SDS011;15011;53.380;10.034;2023-09-19T05:26:46;4.82;;;1.52;;
27576;SDS011;15011;53.380;10.034;2023-09-19T05:31:47;3.75;;;1.23;;
27576;SDS011;15011;53.380;10.034;2023-09-19T05:36:47;4.17;;;1.43;;
27576;SDS011;15011;53.380;10.034;2023-09-19T05:41:48;5.47;;;1.50;;
27576;SDS011;15011;53.380;10.034;2023-09-19T05:46:49;3.90;;;1.37;;
27576;SDS011;15011;53.380;10.034;2023-09-19T05:51:49;3.77;;;1.30;;
27576;SDS011;15011;53.380;10.034;2023-09-19T05:56:53;4.35;;;1.17;;
27576;SDS011;15011;53.380;10.034;2023-09-19T06:01:54;5.75;;;1.40;;
27576;SDS011;15011;53.380;10.034;2023-09-19T06:06:55;3.55;;;1.40;;
27576;SDS011;15011;53.380;10.034;2023-09-19T06:11:55;1.97;;;1.43;;
27576;SDS011;15011;53.380;10.034;2023-09-19T06:16:56;5.00;;;1.70;;
27576;SDS011;15011;53.380;10.034;2023-09-19T06:21:56;2.88;;;1.90;;
27576;SDS011;15011;53.380;10.034;2023-09-19T06:26:57;2.60;;;1.53;;
27576;SDS011;15011;53.380;10.034;2023-09-19T06:31:57;4.38;;;2.65;;
27576;SDS011;15011;53.380;10.034;2023-09-19T06:36:58;6.20;;;1.43;;
27576;SDS011;15011;53.380;10.034;2023-09-19T06:41:58;3.88;;;1.88;;
27576;SDS011;15011;53.380;10.034;2023-09-19T06:47:01;2.65;;;1.42;;
27576;SDS011;15011;53.380;10.034;2023-09-19T06:52:02;3.95;;;1.90;;
27576;SDS011;15011;53.380;10.034;2023-09-19T06:57:03;2.75;;;1.40;;
27576;SDS011;15011;53.380;10.034;2023-09-19T07:02:04;5.35;;;1.85;;
27576;SDS011;15011;53.380;10.034;2023-09-19T07:07:06;4.75;;;1.90;;
27576;SDS011;15011;53.380;10.034;2023-09-19T07:12:09;3.72;;;2.22;;
27576;SDS011;15011;53.380;10.034;2023-09-19T07:17:09;6.35;;;1.95;;
27576;SDS011;15011;53.380;10.034;2023-09-19T07:22:10;7.37;;;2.10;;
27576;SDS011;15011;53.380;10.034;2023-09-19T07:27:10;5.87;;;2.10;;
27576;SDS011;15011;53.380;10.034;2023-09-19T07:32:10;4.87;;;2.17;;
27576;SDS011;15011;53.380;10.034;2023-09-19T07:42:13;3.55;;;1.67;;
27576;SDS011;15011;53.380;10.034;2023-09-19T07:47:17;7.07;;;2.15;;
27576;SDS011;15011;53.380;10.034;2023-09-19T07:52:18;6.47;;;2.38;;
27576;SDS011;15011;53.380;10.034;2023-09-19T07:57:19;10.50;;;2.25;;
27576;SDS011;15011;53.380;10.034;2023-09-19T08:02:20;5.20;;;2.10;;
27576;SDS011;15011;53.380;10.034;2023-09-19T08:07:20;6.43;;;1.90;;
27576;SDS011;15011;53.380;10.034;2023-09-19T08:12:23;10.73;;;2.10;;
27576;SDS011;15011;53.380;10.034;2023-09-19T08:27:24;6.00;;;1.88;;
27576;SDS011;15011;53.380;10.034;2023-09-19T08:32:28;7.82;;;1.60;;
27576;SDS011;15011;53.380;10.034;2023-09-19T08:37:29;6.40;;;1.73;;
27576;SDS011;15011;53.380;10.034;2023-09-19T08:47:41;4.33;;;1.60;;
27576;SDS011;15011;53.380;10.034;2023-09-19T08:52:46;5.43;;;1.42;;
27576;SDS011;15011;53.380;10.034;2023-09-19T09:02:49;4.95;;;1.60;;
27576;SDS011;15011;53.380;10.034;2023-09-19T09:07:50;6.13;;;1.45;;
27576;SDS011;15011;53.380;10.034;2023-09-19T09:12:55;5.50;;;1.50;;
27576;SDS011;15011;53.380;10.034;2023-09-19T09:17:55;3.10;;;1.67;;
27576;SDS011;15011;53.380;10.034;2023-09-19T09:22:57;7.47;;;1.58;;
27576;SDS011;15011;53.380;10.034;2023-09-19T09:28:03;2.80;;;1.25;;
27576;SDS011;15011;53.380;10.034;2023-09-19T09:33:11;4.00;;;1.45;;
27576;SDS011;15011;53.380;10.034;2023-09-19T09:38:11;9.25;;;1.50;;
27576;SDS011;15011;53.380;10.034;2023-09-19T09:43:26;4.55;;;1.35;;
27576;SDS011;15011;53.380;10.034;2023-09-19T09:48:28;5.07;;;1.50;;
27576;SDS011;15011;53.380;10.034;2023-09-19T09:53:32;5.10;;;1.40;;
27576;SDS011;15011;53.380;10.034;2023-09-19T09:58:33;2.77;;;1.70;;
27576;SDS011;15011;53.380;10.034;2023-09-19T10:03:36;7.20;;;1.70;;
27576;SDS011;15011;53.380;10.034;2023-09-19T10:08:40;2.88;;;1.05;;
27576;SDS011;15011;53.380;10.034;2023-09-19T10:13:43;3.75;;;1.35;;
27576;SDS011;15011;53.380;10.034;2023-09-19T10:18:46;2.75;;;1.20;;
27576;SDS011;15011;53.380;10.034;2023-09-19T10:23:50;5.63;;;2.03;;
27576;SDS011;15011;53.380;10.034;2023-09-19T10:28:52;6.47;;;1.38;;
27576;SDS011;15011;53.380;10.034;2023-09-19T10:33:55;4.93;;;1.30;;
27576;SDS011;15011;53.380;10.034;2023-09-19T10:38:57;5.03;;;1.35;;
27576;SDS011;15011;53.380;10.034;2023-09-19T10:44:03;4.00;;;1.55;;
27576;SDS011;15011;53.380;10.034;2023-09-19T10:49:05;5.47;;;1.10;;
27576;SDS011;15011;53.380;10.034;2023-09-19T10:54:10;4.28;;;1.52;;
27576;SDS011;15011;53.380;10.034;2023-09-19T10:59:17;4.00;;;1.63;;
27576;SDS011;15011;53.380;10.034;2023-09-19T11:04:31;6.10;;;1.30;;
27576;SDS011;15011;53.380;10.034;2023-09-19T11:09:45;2.80;;;1.60;;
27576;SDS011;15011;53.380;10.034;2023-09-19T11:14:58;3.42;;;1.15;;
27576;SDS011;15011;53.380;10.034;2023-09-19T11:30:30;4.47;;;2.03;;
27576;SDS011;15011;53.380;10.034;2023-09-19T11:46:21;3.42;;;1.55;;
27576;SDS011;15011;53.380;10.034;2023-09-19T11:51:22;4.37;;;1.60;;
27576;SDS011;15011;53.380;10.034;2023-09-19T11:56:27;4.95;;;1.20;;
27576;SDS011;15011;53.380;10.034;2023-09-19T12:01:31;5.53;;;1.25;;
27576;SDS011;15011;53.380;10.034;2023-09-19T12:06:33;5.15;;;1.80;;
27576;SDS011;15011;53.380;10.034;2023-09-19T12:11:41;4.57;;;1.40;;
27576;SDS011;15011;53.380;10.034;2023-09-19T12:16:50;4.70;;;1.50;;
27576;SDS011;15011;53.380;10.034;2023-09-19T12:21:55;3.50;;;1.38;;
27576;SDS011;15011;53.380;10.034;2023-09-19T12:27:05;7.88;;;1.80;;
27576;SDS011;15011;53.380;10.034;2023-09-19T12:32:06;5.85;;;1.85;;
27576;SDS011;15011;53.380;10.034;2023-09-19T12:37:07;5.37;;;1.50;;
27576;SDS011;15011;53.380;10.034;2023-09-19T12:42:11;5.22;;;2.03;;
27576;SDS011;15011;53.380;10.034;2023-09-19T12:47:17;5.20;;;1.60;;
27576;SDS011;15011;53.380;10.034;2023-09-19T12:52:24;3.72;;;1.35;;
27576;SDS011;15011;53.380;10.034;2023-09-19T12:57:26;5.68;;;1.80;;
27576;SDS011;15011;53.380;10.034;2023-09-19T13:02:26;3.40;;;1.57;;
27576;SDS011;15011;53.380;10.034;2023-09-19T13:07:41;4.35;;;1.55;;
27576;SDS011;15011;53.380;10.034;2023-09-19T13:12:44;3.35;;;1.30;;
27576;SDS011;15011;53.380;10.034;2023-09-19T13:17:47;5.30;;;1.40;;
27576;SDS011;15011;53.380;10.034;2023-09-19T13:22:48;2.10;;;1.50;;
27576;SDS011;15011;53.380;10.034;2023-09-19T13:27:52;6.03;;;1.77;;
27576;SDS011;15011;53.380;10.034;2023-09-19T13:33:08;3.20;;;1.50;;
27576;SDS011;15011;53.380;10.034;2023-09-19T13:38:09;3.47;;;1.15;;
27576;SDS011;15011;53.380;10.034;2023-09-19T13:43:11;4.30;;;1.42;;
27576;SDS011;15011;53.380;10.034;2023-09-19T13:48:11;5.68;;;1.67;;
27576;SDS011;15011;53.380;10.034;2023-09-19T13:53:12;3.40;;;1.50;;
27576;SDS011;15011;53.380;10.034;2023-09-19T13:58:12;3.13;;;1.40;;
27576;SDS011;15011;53.380;10.034;2023-09-19T14:03:13;2.33;;;1.30;;
27576;SDS011;15011;53.380;10.034;2023-09-19T14:08:13;5.70;;;1.70;;
27576;SDS011;15011;53.380;10.034;2023-09-19T14:13:14;7.67;;;1.80;;
27576;SDS011;15011;53.380;10.034;2023-09-19T14:18:15;4.72;;;1.63;;
27576;SDS011;15011;53.380;10.034;2023-09-19T14:23:15;2.40;;;1.20;;
27576;SDS011;15011;53.380;10.034;2023-09-19T14:28:16;5.13;;;1.57;;
27576;SDS011;15011;53.380;10.034;2023-09-19T14:33:16;4.90;;;1.70;;
27576;SDS011;15011;53.380;10.034;2023-09-19T14:38:17;5.70;;;1.97;;
27576;SDS011;15011;53.380;10.034;2023-09-19T14:43:17;3.67;;;1.67;;
27576;SDS011;15011;53.380;10.034;2023-09-19T14:48:19;3.80;;;1.48;;
27576;SDS011;15011;53.380;10.034;2023-09-19T14:53:19;3.97;;;1.48;;
27576;SDS011;15011;53.380;10.034;2023-09-19T14:58:20;3.67;;;1.70;;
27576;SDS011;15011;53.380;10.034;2023-09-19T15:03:21;3.30;;;1.52;;
27576;SDS011;15011;53.380;10.034;2023-09-19T15:08:22;5.20;;;1.80;;
27576;SDS011;15011;53.380;10.034;2023-09-19T15:13:23;3.35;;;1.73;;
27576;SDS011;15011;53.380;10.034;2023-09-19T15:18:28;7.60;;;1.90;;
27576;SDS011;15011;53.380;10.034;2023-09-19T15:23:31;7.07;;;2.28;;
27576;SDS011;15011;53.380;10.034;2023-09-19T15:28:34;7.35;;;2.17;;
27576;SDS011;15011;53.380;10.034;2023-09-19T15:33:35;2.33;;;1.65;;
27576;SDS011;15011;53.380;10.034;2023-09-19T15:44:02;3.88;;;2.20;;
27576;SDS011;15011;53.380;10.034;2023-09-19T15:49:03;4.35;;;1.70;;
27576;SDS011;15011;53.380;10.034;2023-09-19T15:54:08;5.65;;;2.03;;
27576;SDS011;15011;53.380;10.034;2023-09-19T15:59:15;4.95;;;2.22;;
27576;SDS011;15011;53.380;10.034;2023-09-19T16:04:15;5.87;;;1.90;;
27576;SDS011;15011;53.380;10.034;2023-09-19T16:09:17;5.30;;;1.92;;
27576;SDS011;15011;53.380;10.034;2023-09-19T16:14:17;4.40;;;1.92;;
27576;SDS011;15011;53.380;10.034;2023-09-19T16:19:18;5.38;;;1.65;;
27576;SDS011;15011;53.380;10.034;2023-09-19T16:24:19;5.20;;;1.90;;
27576;SDS011;15011;53.380;10.034;2023-09-19T16:29:19;3.57;;;1.73;;
27576;SDS011;15011;53.380;10.034;2023-09-19T16:34:24;4.40;;;1.50;;
27576;SDS011;15011;53.380;10.034;2023-09-19T16:39:25;14.00;;;2.05;;
27576;SDS011;15011;53.380;10.034;2023-09-19T16:44:26;3.90;;;1.80;;
27576;SDS011;15011;53.380;10.034;2023-09-19T16:49:30;3.80;;;2.10;;
27576;SDS011;15011;53.380;10.034;2023-09-19T16:54:30;5.35;;;1.77;;
27576;SDS011;15011;53.380;10.034;2023-09-19T16:59:31;3.87;;;1.47;;
27576;SDS011;15011;53.380;10.034;2023-09-19T17:04:31;4.13;;;1.20;;
27576;SDS011;15011;53.380;10.034;2023-09-19T17:09:32;2.92;;;1.38;;
27576;SDS011;15011;53.380;10.034;2023-09-19T17:14:35;4.55;;;1.23;;
27576;SDS011;15011;53.380;10.034;2023-09-19T17:19:36;3.10;;;1.23;;
27576;SDS011;15011;53.380;10.034;2023-09-19T17:24:36;2.58;;;1.38;;
27576;SDS011;15011;53.380;10.034;2023-09-19T17:29:36;4.67;;;1.40;;
27576;SDS011;15011;53.380;10.034;2023-09-19T17:34:37;4.03;;;1.30;;
27576;SDS011;15011;53.380;10.034;2023-09-19T17:39:38;3.53;;;1.42;;
27576;SDS011;15011;53.380;10.034;2023-09-19T17:44:39;3.13;;;1.13;;
27576;SDS011;15011;53.380;10.034;2023-09-19T17:49:39;5.50;;;1.60;;
27576;SDS011;15011;53.380;10.034;2023-09-19T17:54:39;5.80;;;1.10;;
27576;SDS011;15011;53.380;10.034;2023-09-19T17:59:40;2.40;;;1.17;;
27576;SDS011;15011;53.380;10.034;2023-09-19T18:04:40;4.33;;;1.40;;
27576;SDS011;15011;53.380;10.034;2023-09-19T18:09:41;4.43;;;1.43;;
27576;SDS011;15011;53.380;10.034;2023-09-19T18:14:41;4.13;;;1.83;;
27576;SDS011;15011;53.380;10.034;2023-09-19T18:19:42;4.23;;;1.20;;
27576;SDS011;15011;53.380;10.034;2023-09-19T18:24:42;1.20;;;1.00;;
27576;SDS011;15011;53.380;10.034;2023-09-19T18:29:43;3.15;;;1.65;;
27576;SDS011;15011;53.380;10.034;2023-09-19T18:34:45;3.03;;;1.10;;
27576;SDS011;15011;53.380;10.034;2023-09-19T18:39:45;3.00;;;1.40;;
27576;SDS011;15011;53.380;10.034;2023-09-19T18:44:46;2.77;;;1.20;;
27576;SDS011;15011;53.380;10.034;2023-09-19T18:49:46;2.50;;;1.17;;
27576;SDS011;15011;53.380;10.034;2023-09-19T18:54:48;2.55;;;1.02;;
27576;SDS011;15011;53.380;10.034;2023-09-19T18:59:49;2.65;;;1.10;;
27576;SDS011;15011;53.380;10.034;2023-09-19T19:04:50;2.13;;;1.35;;
27576;SDS011;15011;53.380;10.034;2023-09-19T19:09:51;2.77;;;1.40;;
27576;SDS011;15011;53.380;10.034;2023-09-19T19:14:52;2.17;;;1.10;;
27576;SDS011;15011;53.380;10.034;2023-09-19T19:19:53;2.55;;;1.15;;
27576;SDS011;15011;53.380;10.034;2023-09-19T19:24:54;2.83;;;0.95;;
27576;SDS011;15011;53.380;10.034;2023-09-19T19:29:56;2.15;;;1.20;;
27576;SDS011;15011;53.380;10.034;2023-09-19T19:34:56;2.00;;;1.05;;
27576;SDS011;15011;53.380;10.034;2023-09-19T19:39:57;3.70;;;1.30;;
27576;SDS011;15011;53.380;10.034;2023-09-19T19:44:57;2.83;;;1.10;;
27576;SDS011;15011;53.380;10.034;2023-09-19T19:49:58;3.83;;;1.13;;
27576;SDS011;15011;53.380;10.034;2023-09-19T19:54:59;2.83;;;1.02;;
27576;SDS011;15011;53.380;10.034;2023-09-19T20:00:00;1.77;;;1.05;;
27576;SDS011;15011;53.380;10.034;2023-09-19T20:05:00;1.63;;;0.93;;
27576;SDS011;15011;53.380;10.034;2023-09-19T20:10:01;2.17;;;0.93;;
27576;SDS011;15011;53.380;10.034;2023-09-19T20:15:04;2.55;;;1.05;;
27576;SDS011;15011;53.380;10.034;2023-09-19T20:20:05;3.97;;;1.10;;
27576;SDS011;15011;53.380;10.034;2023-09-19T20:25:15;3.60;;;1.20;;
27576;SDS011;15011;53.380;10.034;2023-09-19T20:30:17;1.30;;;0.98;;
27576;SDS011;15011;53.380;10.034;2023-09-19T20:35:17;1.20;;;0.73;;
27576;SDS011;15011;53.380;10.034;2023-09-19T20:40:18;2.63;;;1.10;;
27576;SDS011;15011;53.380;10.034;2023-09-19T20:45:21;2.10;;;1.40;;
27576;SDS011;15011;53.380;10.034;2023-09-19T20:50:21;2.90;;;1.20;;
27576;SDS011;15011;53.380;10.034;2023-09-19T20:55:26;2.40;;;0.93;;
27576;SDS011;15011;53.380;10.034;2023-09-19T21:00:27;2.70;;;1.10;;
27576;SDS011;15011;53.380;10.034;2023-09-19T21:05:28;5.55;;;0.93;;
27576;SDS011;15011;53.380;10.034;2023-09-19T21:10:28;2.70;;;1.20;;
27576;SDS011;15011;53.380;10.034;2023-09-19T21:15:29;3.17;;;1.00;;
27576;SDS011;15011;53.380;10.034;2023-09-19T21:20:32;1.70;;;0.80;;
27576;SDS011;15011;53.380;10.034;2023-09-19T21:25:34;1.85;;;0.80;;
27576;SDS011;15011;53.380;10.034;2023-09-19T21:30:35;1.40;;;0.90;;
27576;SDS011;15011;53.380;10.034;2023-09-19T21:35:43;2.53;;;0.90;;
27576;SDS011;15011;53.380;10.034;2023-09-19T21:40:44;1.38;;;1.08;;
27576;SDS011;15011;53.380;10.034;2023-09-19T21:45:44;4.83;;;1.00;;
27576;SDS011;15011;53.380;10.034;2023-09-19T21:50:54;2.75;;;0.90;;
27576;SDS011;15011;53.380;10.034;2023-09-19T21:55:59;1.73;;;0.75;;
27576;SDS011;15011;53.380;10.034;2023-09-19T22:01:01;2.25;;;0.90;;
27576;SDS011;15011;53.380;10.034;2023-09-19T22:06:11;4.13;;;1.10;;
27576;SDS011;15011;53.380;10.034;2023-09-19T22:11:13;1.52;;;0.80;;
27576;SDS011;15011;53.380;10.034;2023-09-19T22:16:16;2.92;;;1.20;;
27576;SDS011;15011;53.380;10.034;2023-09-19T22:21:17;4.30;;;1.00;;
27576;SDS011;15011;53.380;10.034;2023-09-19T22:26:22;3.10;;;0.95;;
27576;SDS011;15011;53.380;10.034;2023-09-19T22:31:23;3.50;;;0.98;;
27576;SDS011;15011;53.380;10.034;2023-09-19T22:36:28;3.67;;;1.27;;
27576;SDS011;15011;53.380;10.034;2023-09-19T22:41:32;1.60;;;0.85;;
27576;SDS011;15011;53.380;10.034;2023-09-19T22:46:33;3.53;;;1.00;;
27576;SDS011;15011;53.380;10.034;2023-09-19T22:51:34;2.20;;;1.13;;
27576;SDS011;15011;53.380;10.034;2023-09-19T22:56:41;1.48;;;1.00;;
27576;SDS011;15011;53.380;10.034;2023-09-19T23:01:42;2.17;;;0.80;;
27576;SDS011;15011;53.380;10.034;2023-09-19T23:06:47;1.65;;;1.00;;
27576;SDS011;15011;53.380;10.034;2023-09-19T23:11:52;3.03;;;1.10;;
27576;SDS011;15011;53.380;10.034;2023-09-19T23:16:59;3.45;;;0.90;;
27576;SDS011;15011;53.380;10.034;2023-09-19T23:22:00;5.00;;;1.15;;
27576;SDS011;15011;53.380;10.034;2023-09-19T23:27:09;3.28;;;1.17;;
27576;SDS011;15011;53.380;10.034;2023-09-19T23:32:24;2.40;;;0.90;;
27576;SDS011;15011;53.380;10.034;2023-09-19T23:37:25;2.63;;;1.10;;
27576;SDS011;15011;53.380;10.034;2023-09-19T23:42:25;3.03;;;0.87;;
27576;SDS011;15011;53.380;10.034;2023-09-19T23:47:27;2.63;;;0.80;;
27576;SDS011;15011;53.380;10.034;2023-09-19T23:52:28;2.58;;;1.13;;
27576;SDS011;15011;53.380;10.034;2023-09-19T23:57:28;2.75;;;1.15;;
